createdAt,value
2016-12-17T00:00:07.823Z,1.63
2016-12-17T00:01:07.565Z,1.73
2016-12-17T00:02:08.435Z,1.76
2016-12-17T00:03:08.110Z,1.93
2016-12-17T00:04:07.755Z,1.90
2016-12-17T00:05:07.478Z,1.88
2016-12-17T00:06:08.273Z,1.98
2016-12-17T00:07:08.020Z,1.92
2016-12-17T00:08:07.723Z,1.93
2016-12-17T00:09:07.541Z,1.57
2016-12-17T00:10:08.257Z,1.58
2016-12-17T00:11:08.037Z,1.54
2016-12-17T00:12:07.575Z,1.70
2016-12-17T00:13:08.250Z,1.76
2016-12-17T00:14:07.881Z,1.90
2016-12-17T00:15:07.626Z,1.89
2016-12-17T00:16:07.532Z,1.72
2016-12-17T00:17:08.191Z,1.63
2016-12-17T00:18:07.844Z,1.48
2016-12-17T00:19:07.590Z,1.31
2016-12-17T00:20:07.415Z,1.60
2016-12-17T00:21:08.098Z,1.58
2016-12-17T00:22:07.902Z,1.53
2016-12-17T00:23:07.540Z,1.36
2016-12-17T00:24:08.087Z,1.48
2016-12-17T00:25:07.829Z,1.65
2016-12-17T00:26:07.639Z,1.56
2016-12-17T00:27:08.369Z,1.63
2016-12-17T00:28:08.038Z,1.78
2016-12-17T00:29:07.722Z,1.72
2016-12-17T00:30:07.534Z,1.45
2016-12-17T00:31:08.190Z,1.63
2016-12-17T00:32:07.844Z,1.58
2016-12-17T00:33:07.656Z,1.69
2016-12-17T00:34:07.317Z,1.68
2016-12-17T00:35:07.963Z,1.64
2016-12-17T00:36:07.612Z,1.42
2016-12-17T00:37:07.325Z,1.62
2016-12-17T00:38:08.005Z,1.59
2016-12-17T00:39:07.472Z,1.74
2016-12-17T00:40:07.909Z,1.61
2016-12-17T00:41:07.624Z,1.75
2016-12-17T00:42:07.391Z,1.46
2016-12-17T00:43:08.107Z,1.61
2016-12-17T00:44:07.814Z,1.80
2016-12-17T00:45:07.491Z,1.76
2016-12-17T00:46:08.140Z,1.78
2016-12-17T00:47:07.948Z,1.75
2016-12-17T00:48:08.157Z,1.36
2016-12-17T00:49:09.057Z,1.29
2016-12-17T00:50:07.761Z,1.27
2016-12-17T00:51:07.557Z,1.04
2016-12-17T00:52:07.590Z,1.38
2016-12-17T00:53:07.237Z,1.48
2016-12-17T00:54:07.841Z,1.53
2016-12-17T00:55:07.620Z,1.67
2016-12-17T00:56:07.405Z,1.67
2016-12-17T00:57:08.110Z,1.47
2016-12-17T00:58:07.834Z,1.60
2016-12-17T00:59:07.491Z,1.49
2016-12-17T01:00:08.221Z,1.45
2016-12-17T01:01:07.888Z,1.32
2016-12-17T01:02:07.619Z,1.25
2016-12-17T01:03:07.480Z,1.14
2016-12-17T01:04:08.149Z,1.27
2016-12-17T01:05:07.880Z,1.17
2016-12-17T01:06:07.421Z,1.07
2016-12-17T01:07:08.126Z,1.38
2016-12-17T01:08:07.865Z,1.51
2016-12-17T01:09:08.081Z,1.72
2016-12-17T01:10:07.727Z,1.64
2016-12-17T01:11:07.616Z,1.64
2016-12-17T01:12:07.343Z,1.63
2016-12-17T01:13:07.900Z,1.56
2016-12-17T01:14:07.723Z,1.58
2016-12-17T01:15:07.389Z,1.66
2016-12-17T01:16:07.946Z,1.52
2016-12-17T01:17:07.907Z,1.54
2016-12-17T01:18:07.625Z,1.51
2016-12-17T01:19:07.345Z,1.65
2016-12-17T01:20:08.280Z,1.61
2016-12-17T01:21:08.023Z,1.58
2016-12-17T01:22:07.703Z,1.66
2016-12-17T01:23:08.185Z,1.49
2016-12-17T01:24:07.884Z,1.59
2016-12-17T01:25:07.598Z,1.74
2016-12-17T01:26:07.385Z,1.73
2016-12-17T01:27:08.019Z,1.61
2016-12-17T01:28:07.656Z,1.65
2016-12-17T01:29:07.515Z,1.62
2016-12-17T01:30:08.230Z,1.52
2016-12-17T01:31:07.994Z,1.59
2016-12-17T01:32:07.654Z,1.26
2016-12-17T01:33:07.458Z,1.32
2016-12-17T01:34:08.104Z,1.43
2016-12-17T01:35:08.185Z,1.40
2016-12-17T01:36:07.708Z,1.31
2016-12-17T01:37:07.877Z,1.60
2016-12-17T01:38:07.556Z,1.21
2016-12-17T01:39:07.596Z,1.43
2016-12-17T01:40:07.385Z,1.52
2016-12-17T01:41:08.085Z,1.59
2016-12-17T01:42:07.506Z,1.59
2016-12-17T01:43:08.162Z,1.59
2016-12-17T01:44:07.736Z,1.64
2016-12-17T01:45:07.342Z,1.49
2016-12-17T01:46:08.033Z,1.57
2016-12-17T01:47:07.721Z,1.65
2016-12-17T01:48:07.336Z,1.48
2016-12-17T01:49:08.237Z,1.44
2016-12-17T01:50:07.935Z,1.33
2016-12-17T01:51:07.753Z,1.39
2016-12-17T01:52:07.423Z,1.58
2016-12-17T01:53:08.098Z,1.67
2016-12-17T01:54:07.742Z,1.68
2016-12-17T01:55:07.721Z,1.72
2016-12-17T01:56:07.434Z,1.58
2016-12-17T01:57:07.939Z,1.49
2016-12-17T01:58:07.658Z,1.58
2016-12-17T01:59:07.402Z,1.40
2016-12-17T02:00:08.247Z,1.38
2016-12-17T02:01:07.947Z,1.18
2016-12-17T02:02:07.548Z,1.31
2016-12-17T02:03:07.641Z,1.53
2016-12-17T02:04:07.713Z,1.52
2016-12-17T02:05:07.435Z,1.61
2016-12-17T02:06:07.998Z,1.62
2016-12-17T02:07:07.848Z,1.62
2016-12-17T02:08:07.574Z,1.50
2016-12-17T02:09:07.464Z,1.53
2016-12-17T02:10:08.082Z,1.53
2016-12-17T02:11:07.789Z,1.65
2016-12-17T02:12:07.447Z,1.50
2016-12-17T02:13:08.108Z,1.70
2016-12-17T02:14:07.735Z,1.77
2016-12-17T02:15:07.472Z,1.42
2016-12-17T02:16:08.182Z,1.10
2016-12-17T02:17:08.010Z,1.25
2016-12-17T02:18:07.979Z,1.25
2016-12-17T02:19:07.717Z,1.20
2016-12-17T02:20:08.146Z,1.09
2016-12-17T02:21:07.318Z,1.20
2016-12-17T02:22:08.059Z,1.43
2016-12-17T02:23:07.873Z,1.55
2016-12-17T02:24:07.847Z,1.77
2016-12-17T02:25:07.478Z,1.53
2016-12-17T02:26:08.096Z,1.40
2016-12-17T02:27:07.760Z,1.11
2016-12-17T02:28:07.534Z,1.47
2016-12-17T02:29:08.127Z,1.49
2016-12-17T02:30:07.794Z,1.17
2016-12-17T02:31:08.654Z,1.17
2016-12-17T02:32:07.464Z,1.14
2016-12-17T02:33:08.113Z,1.29
2016-12-17T02:34:07.753Z,1.26
2016-12-17T02:35:07.581Z,1.18
2016-12-17T02:36:07.168Z,1.30
2016-12-17T02:37:07.415Z,1.31
2016-12-17T02:38:08.106Z,1.32
2016-12-17T02:39:07.721Z,1.32
2016-12-17T02:40:07.366Z,1.28
2016-12-17T02:41:08.205Z,1.44
2016-12-17T02:42:07.893Z,1.49
2016-12-17T02:43:07.514Z,1.32
2016-12-17T02:44:08.167Z,1.33
2016-12-17T02:45:07.980Z,1.20
2016-12-17T02:46:07.715Z,1.11
2016-12-17T02:47:07.336Z,1.06
2016-12-17T02:48:08.230Z,1.24
2016-12-17T02:49:08.037Z,1.46
2016-12-17T02:50:07.739Z,1.49
2016-12-17T02:51:07.523Z,1.26
2016-12-17T02:52:08.232Z,1.58
2016-12-17T02:53:07.935Z,1.44
2016-12-17T02:54:07.689Z,1.40
2016-12-17T02:55:07.580Z,1.48
2016-12-17T02:56:07.292Z,1.55
2016-12-17T02:57:07.960Z,1.68
2016-12-17T02:58:07.780Z,1.62
2016-12-17T02:59:07.505Z,1.52
2016-12-17T03:00:08.193Z,1.41
2016-12-17T03:01:07.831Z,1.41
2016-12-17T03:02:07.508Z,1.42
2016-12-17T03:03:08.147Z,1.29
2016-12-17T03:04:07.952Z,1.32
2016-12-17T03:05:07.580Z,1.43
2016-12-17T03:06:07.483Z,1.30
2016-12-17T03:07:07.782Z,1.35
2016-12-17T03:08:07.670Z,1.27
2016-12-17T03:09:07.439Z,1.30
2016-12-17T03:10:08.083Z,1.45
2016-12-17T03:11:07.756Z,1.45
2016-12-17T03:12:07.357Z,1.43
2016-12-17T03:13:08.000Z,1.48
2016-12-17T03:14:07.743Z,1.42
2016-12-17T03:15:07.463Z,1.39
2016-12-17T03:16:08.189Z,1.57
2016-12-17T03:17:08.113Z,1.57
2016-12-17T03:18:07.791Z,1.45
2016-12-17T03:19:07.721Z,1.56
2016-12-17T03:20:07.499Z,1.42
2016-12-17T03:21:08.166Z,1.63
2016-12-17T03:22:07.868Z,1.59
2016-12-17T03:23:07.641Z,1.38
2016-12-17T03:24:07.509Z,1.56
2016-12-17T03:25:08.202Z,1.43
2016-12-17T03:26:07.980Z,1.33
2016-12-17T03:27:07.751Z,1.58
2016-12-17T03:28:07.446Z,1.46
2016-12-17T03:29:08.169Z,1.45
2016-12-17T03:30:08.064Z,1.53
2016-12-17T03:31:08.273Z,1.54
2016-12-17T03:32:08.119Z,1.72
2016-12-17T03:33:07.804Z,1.56
2016-12-17T03:34:07.518Z,1.53
2016-12-17T03:35:08.196Z,1.49
2016-12-17T03:36:07.920Z,1.48
2016-12-17T03:37:07.405Z,1.33
2016-12-17T03:38:08.020Z,1.33
2016-12-17T03:39:07.771Z,1.44
2016-12-17T03:40:07.467Z,1.34
2016-12-17T03:41:08.945Z,1.35
2016-12-17T03:42:07.608Z,1.49
2016-12-17T03:43:07.382Z,1.41
2016-12-17T03:44:07.995Z,1.50
2016-12-17T03:45:07.951Z,1.22
2016-12-17T03:46:07.390Z,1.21
2016-12-17T03:47:07.799Z,1.17
2016-12-17T03:48:07.480Z,1.21
2016-12-17T03:49:08.229Z,1.39
2016-12-17T03:50:07.925Z,1.48
2016-12-17T03:51:07.572Z,1.44
2016-12-17T03:52:08.271Z,1.39
2016-12-17T03:53:07.978Z,1.41
2016-12-17T03:54:07.690Z,1.31
2016-12-17T03:55:07.520Z,1.32
2016-12-17T03:56:08.195Z,1.23
2016-12-17T03:57:07.832Z,1.40
2016-12-17T03:58:07.536Z,1.25
2016-12-17T03:59:08.163Z,1.48
2016-12-17T04:00:07.903Z,1.25
2016-12-17T04:01:07.721Z,1.23
2016-12-17T04:02:07.442Z,0.98
2016-12-17T04:03:08.174Z,1.11
2016-12-17T04:04:07.871Z,1.33
2016-12-17T04:05:07.563Z,1.17
2016-12-17T04:06:08.247Z,1.41
2016-12-17T04:07:07.920Z,1.24
2016-12-17T04:08:07.566Z,0.90
2016-12-17T04:09:07.468Z,1.07
2016-12-17T04:10:08.154Z,1.08
2016-12-17T04:11:08.084Z,1.31
2016-12-17T04:12:07.520Z,1.20
2016-12-17T04:13:08.151Z,1.17
2016-12-17T04:14:07.791Z,1.02
2016-12-17T04:15:07.542Z,1.13
2016-12-17T04:16:08.173Z,1.07
2016-12-17T04:17:08.739Z,1.11
2016-12-17T04:18:07.875Z,1.08
2016-12-17T04:19:07.594Z,1.15
2016-12-17T04:20:07.382Z,1.22
2016-12-17T04:21:08.093Z,1.38
2016-12-17T04:22:07.756Z,1.26
2016-12-17T04:23:07.512Z,1.15
2016-12-17T04:24:08.202Z,0.98
2016-12-17T04:25:07.909Z,1.00
2016-12-17T04:26:07.582Z,1.16
2016-12-17T04:27:08.282Z,1.34
2016-12-17T04:28:07.727Z,0.97
2016-12-17T04:29:07.847Z,1.19
2016-12-17T04:30:07.613Z,1.18
2016-12-17T04:31:07.311Z,1.30
2016-12-17T04:32:08.024Z,1.34
2016-12-17T04:33:07.865Z,1.23
2016-12-17T04:34:07.852Z,1.36
2016-12-17T04:35:07.652Z,1.22
2016-12-17T04:36:07.452Z,0.98
2016-12-17T04:37:08.979Z,0.98
2016-12-17T04:38:08.227Z,0.83
2016-12-17T04:39:08.654Z,0.89
2016-12-17T04:40:07.585Z,0.98
2016-12-17T04:41:07.956Z,0.90
2016-12-17T04:42:08.659Z,1.03
2016-12-17T04:43:07.411Z,1.19
2016-12-17T04:44:08.110Z,0.92
2016-12-17T04:45:07.797Z,0.96
2016-12-17T04:46:07.513Z,1.07
2016-12-17T04:47:08.255Z,1.12
2016-12-17T04:48:08.024Z,0.79
2016-12-17T04:49:07.735Z,0.89
2016-12-17T04:50:07.555Z,0.98
2016-12-17T04:51:08.329Z,1.01
2016-12-17T04:52:08.053Z,1.02
2016-12-17T04:53:07.460Z,0.98
2016-12-17T04:54:07.968Z,0.67
2016-12-17T04:55:07.763Z,0.70
2016-12-17T04:56:07.495Z,0.59
2016-12-17T04:57:08.146Z,0.78
2016-12-17T04:58:08.111Z,0.81
2016-12-17T04:59:08.010Z,0.63
2016-12-17T05:00:07.828Z,1.03
2016-12-17T05:01:07.497Z,0.98
2016-12-17T05:02:08.213Z,1.12
2016-12-17T05:03:07.907Z,1.02
2016-12-17T05:04:08.141Z,0.93
2016-12-17T05:05:08.026Z,0.91
2016-12-17T05:06:07.710Z,0.85
2016-12-17T05:07:07.455Z,0.95
2016-12-17T05:08:08.097Z,0.89
2016-12-17T05:09:07.823Z,1.07
2016-12-17T05:10:07.599Z,1.11
2016-12-17T05:11:07.445Z,0.79
2016-12-17T05:12:07.436Z,0.65
2016-12-17T05:13:08.158Z,1.03
2016-12-17T05:14:07.904Z,1.05
2016-12-17T05:15:07.917Z,0.95
2016-12-17T05:16:11.166Z,0.68
2016-12-17T05:17:08.750Z,0.69
2016-12-17T05:18:08.504Z,0.47
2016-12-17T05:19:08.824Z,0.63
2016-12-17T05:20:08.358Z,0.59
2016-12-17T05:21:08.314Z,0.76
2016-12-17T05:22:08.549Z,0.90
2016-12-17T05:23:09.365Z,0.83
2016-12-17T05:24:09.577Z,0.86
2016-12-17T05:25:10.012Z,0.73
2016-12-17T05:26:13.941Z,0.56
2016-12-17T05:27:08.349Z,0.70
2016-12-17T05:28:09.417Z,0.73
2016-12-17T05:29:08.125Z,0.76
2016-12-17T05:30:08.869Z,0.99
2016-12-17T05:31:07.596Z,0.55
2016-12-17T05:32:08.354Z,0.76
2016-12-17T05:33:07.451Z,0.88
2016-12-17T05:34:08.406Z,0.89
2016-12-17T05:35:08.164Z,0.83
2016-12-17T05:36:07.859Z,0.95
2016-12-17T05:37:07.667Z,0.89
2016-12-17T05:38:07.375Z,0.94
2016-12-17T05:39:08.055Z,1.06
2016-12-17T05:40:07.686Z,1.19
2016-12-17T05:41:07.644Z,1.16
2016-12-17T05:42:07.665Z,1.12
2016-12-17T05:43:07.443Z,0.83
2016-12-17T05:44:08.091Z,0.76
2016-12-17T05:45:07.896Z,0.80
2016-12-17T05:46:07.668Z,0.84
2016-12-17T05:47:07.512Z,0.97
2016-12-17T05:48:08.184Z,0.69
2016-12-17T05:49:07.842Z,0.74
2016-12-17T05:50:07.640Z,0.63
2016-12-17T05:51:07.280Z,0.78
2016-12-17T05:52:07.903Z,0.76
2016-12-17T05:53:07.714Z,0.64
2016-12-17T05:54:07.494Z,0.51
2016-12-17T05:55:08.187Z,0.85
2016-12-17T05:56:07.845Z,1.04
2016-12-17T05:57:07.615Z,1.01
2016-12-17T05:58:07.319Z,1.01
2016-12-17T05:59:08.023Z,1.09
2016-12-17T06:00:07.719Z,1.07
2016-12-17T06:01:07.671Z,0.94
2016-12-17T06:02:07.385Z,0.77
2016-12-17T06:03:08.071Z,0.87
2016-12-17T06:04:08.016Z,0.94
2016-12-17T06:05:07.727Z,0.97
2016-12-17T06:06:07.397Z,0.87
2016-12-17T06:07:08.089Z,0.91
2016-12-17T06:08:07.776Z,0.61
2016-12-17T06:09:07.458Z,0.70
2016-12-17T06:10:08.200Z,0.63
2016-12-17T06:11:08.098Z,0.80
2016-12-17T06:12:07.783Z,0.60
2016-12-17T06:13:08.225Z,0.63
2016-12-17T06:14:07.948Z,0.44
2016-12-17T06:15:07.829Z,0.39
2016-12-17T06:16:07.616Z,0.34
2016-12-17T06:17:07.519Z,0.51
2016-12-17T06:18:08.259Z,0.58
2016-12-17T06:19:07.946Z,0.66
2016-12-17T06:20:07.621Z,0.56
2016-12-17T06:21:07.448Z,0.75
2016-12-17T06:22:08.091Z,0.37
2016-12-17T06:23:07.833Z,0.47
2016-12-17T06:24:07.625Z,0.61
2016-12-17T06:25:07.465Z,0.59
2016-12-17T06:26:08.124Z,0.66
2016-12-17T06:27:07.891Z,0.88
2016-12-17T06:28:07.597Z,0.79
2016-12-17T06:29:07.441Z,0.83
2016-12-17T06:30:09.329Z,0.89
2016-12-17T06:31:08.046Z,0.52
2016-12-17T06:32:07.816Z,0.68
2016-12-17T06:33:07.552Z,0.66
2016-12-17T06:34:08.269Z,0.55
2016-12-17T06:35:08.088Z,0.54
2016-12-17T06:36:07.853Z,0.66
2016-12-17T06:37:07.667Z,0.49
2016-12-17T06:38:07.406Z,0.43
2016-12-17T06:39:08.288Z,0.48
2016-12-17T06:40:08.089Z,0.57
2016-12-17T06:41:07.927Z,0.52
2016-12-17T06:42:07.560Z,0.56
2016-12-17T06:43:08.320Z,0.44
2016-12-17T06:44:08.014Z,0.57
2016-12-17T06:45:07.532Z,0.63
2016-12-17T06:46:07.350Z,0.22
2016-12-17T06:47:08.015Z,0.21
2016-12-17T06:48:07.759Z,-0.00
2016-12-17T06:49:07.544Z,0.47
2016-12-17T06:50:08.180Z,-0.05
2016-12-17T06:51:07.739Z,0.04
2016-12-17T06:52:07.337Z,0.11
2016-12-17T06:53:07.981Z,0.22
2016-12-17T06:54:07.777Z,0.21
2016-12-17T06:55:07.474Z,0.35
2016-12-17T06:56:09.283Z,0.41
2016-12-17T06:57:08.215Z,0.27
2016-12-17T06:58:07.833Z,0.62
2016-12-17T06:59:07.757Z,0.37
2016-12-17T07:00:08.404Z,0.51
2016-12-17T07:01:08.263Z,0.59
2016-12-17T07:02:07.965Z,0.59
2016-12-17T07:03:07.664Z,0.48
2016-12-17T07:04:07.585Z,0.59
2016-12-17T07:05:07.370Z,0.67
2016-12-17T07:06:08.060Z,0.67
2016-12-17T07:07:07.791Z,0.68
2016-12-17T07:08:07.519Z,0.64
2016-12-17T07:09:08.254Z,0.48
2016-12-17T07:10:07.971Z,0.62
2016-12-17T07:11:07.775Z,0.61
2016-12-17T07:12:08.546Z,0.59
2016-12-17T07:13:08.200Z,0.66
2016-12-17T07:14:07.860Z,0.60
2016-12-17T07:15:07.544Z,0.68
2016-12-17T07:16:08.244Z,0.67
2016-12-17T07:17:07.997Z,0.67
2016-12-17T07:18:07.823Z,0.67
2016-12-17T07:19:07.515Z,0.60
2016-12-17T07:20:08.346Z,0.50
2016-12-17T07:21:07.979Z,0.46
2016-12-17T07:22:07.839Z,0.58
2016-12-17T07:23:07.549Z,0.85
2016-12-17T07:24:08.237Z,0.73
2016-12-17T07:25:08.000Z,0.56
2016-12-17T07:26:07.719Z,0.66
2016-12-17T07:27:07.329Z,0.75
2016-12-17T07:28:07.434Z,0.69
2016-12-17T07:29:08.143Z,0.72
2016-12-17T07:30:07.996Z,0.66
2016-12-17T07:31:07.844Z,0.83
2016-12-17T07:32:08.280Z,0.79
2016-12-17T07:33:07.980Z,0.82
2016-12-17T07:34:07.689Z,0.80
2016-12-17T07:35:07.479Z,0.79
2016-12-17T07:36:08.168Z,0.78
2016-12-17T07:37:07.854Z,0.79
2016-12-17T07:38:07.577Z,0.79
2016-12-17T07:39:08.253Z,0.76
2016-12-17T07:40:07.517Z,0.60
2016-12-17T07:41:08.340Z,0.77
2016-12-17T07:42:08.119Z,0.84
2016-12-17T07:43:07.989Z,0.82
2016-12-17T07:44:07.707Z,0.86
2016-12-17T07:45:07.555Z,0.86
2016-12-17T07:46:08.215Z,0.77
2016-12-17T07:47:08.022Z,1.00
2016-12-17T07:48:07.744Z,0.89
2016-12-17T07:49:07.654Z,0.90
2016-12-17T07:50:07.519Z,0.92
2016-12-17T07:51:08.287Z,0.96
2016-12-17T07:52:08.079Z,0.60
2016-12-17T07:53:07.797Z,0.78
2016-12-17T07:54:07.550Z,0.84
2016-12-17T07:55:08.018Z,0.96
2016-12-17T07:56:08.289Z,1.01
2016-12-17T07:57:07.950Z,0.68
2016-12-17T07:58:08.266Z,0.63
2016-12-17T07:59:08.011Z,0.78
2016-12-17T08:00:07.858Z,0.77
2016-12-17T08:01:07.627Z,0.89
2016-12-17T08:02:07.547Z,0.98
2016-12-17T08:03:08.220Z,0.86
2016-12-17T08:04:08.073Z,0.80
2016-12-17T08:05:07.836Z,0.79
2016-12-17T08:06:07.684Z,0.79
2016-12-17T08:07:07.479Z,0.73
2016-12-17T08:08:08.110Z,0.40
2016-12-17T08:09:07.871Z,0.74
2016-12-17T08:10:07.401Z,0.86
2016-12-17T08:11:08.186Z,0.87
2016-12-17T08:12:07.789Z,0.84
2016-12-17T08:13:07.606Z,0.84
2016-12-17T08:14:07.882Z,1.01
2016-12-17T08:15:07.650Z,0.63
2016-12-17T08:16:07.405Z,0.63
2016-12-17T08:17:08.942Z,0.75
2016-12-17T08:18:07.544Z,0.70
2016-12-17T08:19:08.255Z,0.36
2016-12-17T08:20:08.030Z,0.27
2016-12-17T08:21:07.758Z,0.41
2016-12-17T08:22:07.618Z,0.66
2016-12-17T08:23:07.451Z,0.62
2016-12-17T08:24:08.131Z,0.59
2016-12-17T08:25:07.918Z,0.64
2016-12-17T08:26:07.703Z,0.85
2016-12-17T08:27:07.483Z,0.96
2016-12-17T08:28:08.226Z,0.77
2016-12-17T08:29:07.990Z,0.94
2016-12-17T08:30:07.845Z,0.86
2016-12-17T08:31:07.603Z,0.85
2016-12-17T08:32:08.017Z,0.89
2016-12-17T08:33:08.183Z,1.01
2016-12-17T08:34:08.631Z,0.98
2016-12-17T08:35:07.443Z,0.89
2016-12-17T08:36:08.209Z,1.11
2016-12-17T08:37:07.629Z,0.90
2016-12-17T08:38:08.371Z,0.81
2016-12-17T08:39:08.058Z,0.76
2016-12-17T08:40:07.838Z,0.98
2016-12-17T08:41:07.845Z,0.87
2016-12-17T08:42:07.734Z,0.53
2016-12-17T08:43:07.514Z,0.87
2016-12-17T08:44:08.255Z,0.99
2016-12-17T08:45:08.081Z,1.16
2016-12-17T08:46:07.790Z,1.12
2016-12-17T08:47:07.524Z,1.02
2016-12-17T08:48:08.182Z,1.09
2016-12-17T08:49:07.928Z,1.27
2016-12-17T08:50:07.735Z,1.29
2016-12-17T08:51:08.204Z,1.09
2016-12-17T08:52:08.164Z,1.38
2016-12-17T08:53:08.000Z,0.79
2016-12-17T08:54:07.787Z,0.94
2016-12-17T08:55:07.663Z,0.84
2016-12-17T08:56:07.665Z,1.13
2016-12-17T08:57:07.444Z,0.87
2016-12-17T08:58:08.209Z,0.87
2016-12-17T08:59:07.966Z,0.94
2016-12-17T09:00:07.711Z,1.14
2016-12-17T09:01:07.514Z,1.30
2016-12-17T09:02:08.283Z,1.49
2016-12-17T09:03:07.941Z,1.44
2016-12-17T09:04:07.693Z,1.42
2016-12-17T09:05:07.437Z,1.03
2016-12-17T09:06:08.294Z,1.14
2016-12-17T09:07:08.001Z,1.17
2016-12-17T09:08:07.598Z,1.26
2016-12-17T09:09:07.381Z,1.30
2016-12-17T09:10:08.161Z,1.33
2016-12-17T09:11:08.121Z,1.22
2016-12-17T09:12:07.858Z,0.94
2016-12-17T09:13:07.707Z,0.92
2016-12-17T09:14:08.282Z,0.77
2016-12-17T09:15:08.025Z,0.84
2016-12-17T09:16:07.869Z,1.05
2016-12-17T09:17:08.800Z,0.91
2016-12-17T09:18:07.570Z,0.67
2016-12-17T09:19:11.818Z,0.71
2016-12-17T09:20:08.274Z,0.44
2016-12-17T09:21:08.164Z,0.77
2016-12-17T09:22:08.772Z,0.95
2016-12-17T09:23:07.994Z,0.81
2016-12-17T09:24:07.369Z,1.04
2016-12-17T09:25:08.105Z,1.08
2016-12-17T09:26:07.802Z,1.25
2016-12-17T09:27:07.700Z,1.12
2016-12-17T09:28:07.450Z,1.42
2016-12-17T09:29:08.470Z,1.49
2016-12-17T09:30:09.049Z,1.39
2016-12-17T09:31:07.680Z,1.32
2016-12-17T09:32:07.400Z,1.06
2016-12-17T09:33:08.237Z,1.02
2016-12-17T09:34:08.501Z,0.95
2016-12-17T09:35:08.210Z,0.95
2016-12-17T09:36:08.003Z,1.09
2016-12-17T09:37:07.777Z,1.31
2016-12-17T09:38:07.670Z,1.48
2016-12-17T09:39:07.549Z,1.56
2016-12-17T09:40:08.308Z,1.33
2016-12-17T09:41:08.192Z,1.21
2016-12-17T09:42:07.945Z,1.32
2016-12-17T09:43:07.765Z,1.49
2016-12-17T09:44:07.644Z,1.54
2016-12-17T09:45:07.400Z,1.54
2016-12-17T09:46:08.135Z,1.70
2016-12-17T09:47:07.839Z,1.66
2016-12-17T09:48:08.723Z,1.87
2016-12-17T09:49:07.413Z,1.54
2016-12-17T09:50:08.182Z,1.56
2016-12-17T09:51:07.930Z,1.42
2016-12-17T09:52:07.766Z,1.68
2016-12-17T09:53:07.529Z,1.55
2016-12-17T09:54:08.202Z,1.39
2016-12-17T09:55:08.045Z,1.47
2016-12-17T09:56:07.805Z,1.60
2016-12-17T09:57:07.721Z,1.65
2016-12-17T09:58:07.410Z,1.70
2016-12-17T09:59:08.071Z,1.72
2016-12-17T10:00:07.792Z,1.91
2016-12-17T10:01:07.628Z,1.82
2016-12-17T10:02:07.499Z,1.81
2016-12-17T10:03:08.106Z,1.91
2016-12-17T10:04:39.561Z,1.92
2016-12-17T10:05:07.464Z,1.91
2016-12-17T10:06:08.087Z,1.95
2016-12-17T10:07:07.902Z,2.02
2016-12-17T10:08:07.747Z,2.06
2016-12-17T10:09:07.640Z,2.13
2016-12-17T10:10:07.672Z,2.08
2016-12-17T10:11:08.257Z,2.00
2016-12-17T10:12:08.084Z,2.03
2016-12-17T10:13:08.517Z,2.10
2016-12-17T10:14:07.940Z,2.19
2016-12-17T10:15:07.731Z,2.17
2016-12-17T10:16:07.636Z,2.08
2016-12-17T10:17:07.534Z,2.26
2016-12-17T10:18:08.180Z,2.28
2016-12-17T10:19:08.858Z,2.27
2016-12-17T10:20:07.678Z,2.22
2016-12-17T10:21:07.163Z,2.20
2016-12-17T10:22:07.467Z,2.36
2016-12-17T10:23:08.182Z,2.37
2016-12-17T10:24:07.894Z,2.42
2016-12-17T10:25:07.705Z,2.25
2016-12-17T10:26:07.481Z,2.43
2016-12-17T10:27:09.469Z,2.30
2016-12-17T10:28:07.446Z,2.24
2016-12-17T10:29:08.113Z,2.28
2016-12-17T10:30:07.881Z,2.40
2016-12-17T10:31:07.670Z,2.45
2016-12-17T10:32:07.947Z,2.39
2016-12-17T10:33:07.738Z,2.42
2016-12-17T10:34:07.487Z,2.40
2016-12-17T10:35:08.138Z,2.35
2016-12-17T10:36:07.830Z,2.40
2016-12-17T10:37:07.633Z,2.48
2016-12-17T10:38:07.528Z,2.50
2016-12-17T10:39:08.305Z,2.52
2016-12-17T10:40:07.994Z,2.43
2016-12-17T10:41:07.940Z,2.39
2016-12-17T10:42:08.238Z,2.48
2016-12-17T10:43:08.053Z,2.54
2016-12-17T10:44:07.750Z,2.45
2016-12-17T10:45:07.554Z,2.53
2016-12-17T10:46:08.222Z,2.72
2016-12-17T10:47:08.027Z,2.74
2016-12-17T10:48:07.849Z,2.79
2016-12-17T10:49:07.660Z,2.63
2016-12-17T10:50:07.547Z,2.69
2016-12-17T10:51:08.183Z,2.66
2016-12-17T10:52:07.930Z,2.79
2016-12-17T10:53:07.821Z,2.80
2016-12-17T10:54:07.648Z,2.80
2016-12-17T10:55:07.405Z,2.90
2016-12-17T10:56:07.834Z,2.70
2016-12-17T10:57:08.291Z,2.64
2016-12-17T10:58:08.114Z,2.79
2016-12-17T10:59:07.851Z,2.89
2016-12-17T11:00:07.554Z,2.84
2016-12-17T11:01:08.356Z,2.78
2016-12-17T11:02:08.115Z,2.67
2016-12-17T11:03:08.781Z,2.52
2016-12-17T11:04:08.311Z,2.62
2016-12-17T11:05:08.157Z,2.75
2016-12-17T11:06:07.946Z,2.70
2016-12-17T11:07:36.260Z,2.79
2016-12-17T11:08:19.731Z,3.02
2016-12-17T11:09:08.098Z,2.93
2016-12-17T11:10:08.227Z,2.84
2016-12-17T11:11:07.799Z,2.92
2016-12-17T11:12:07.593Z,2.92
2016-12-17T11:13:07.515Z,2.70
2016-12-17T11:14:08.035Z,2.81
2016-12-17T11:15:10.173Z,2.92
2016-12-17T11:16:08.136Z,3.00
2016-12-17T11:17:08.695Z,3.01
2016-12-17T11:18:08.014Z,3.07
2016-12-17T11:19:07.702Z,3.05
2016-12-17T11:21:08.656Z,3.01
2016-12-17T11:22:08.639Z,3.25
2016-12-17T11:23:07.925Z,3.20
2016-12-17T11:24:07.775Z,3.21
2016-12-17T11:25:07.617Z,3.02
2016-12-17T11:26:07.470Z,3.08
2016-12-17T11:27:08.273Z,3.26
2016-12-17T11:28:07.619Z,3.39
2016-12-17T11:29:07.558Z,3.32
2016-12-17T11:30:08.372Z,3.17
2016-12-17T11:31:09.268Z,3.28
2016-12-17T11:32:08.121Z,3.36
2016-12-17T11:33:07.871Z,3.47
2016-12-17T11:34:07.700Z,3.45
2016-12-17T11:35:08.655Z,3.45
2016-12-17T11:36:07.836Z,3.44
2016-12-17T11:37:07.563Z,3.35
2016-12-17T11:38:08.348Z,3.36
2016-12-17T11:39:08.197Z,3.50
2016-12-17T11:40:07.969Z,3.38
2016-12-17T11:41:08.381Z,3.47
2016-12-17T11:42:07.885Z,3.54
2016-12-17T11:43:07.601Z,3.52
2016-12-17T11:44:07.557Z,3.55
2016-12-17T11:45:08.276Z,3.61
2016-12-17T11:46:07.930Z,3.56
2016-12-17T11:47:07.735Z,3.55
2016-12-17T11:48:07.558Z,3.59
2016-12-17T11:49:07.437Z,3.68
2016-12-17T11:50:07.611Z,3.59
2016-12-17T11:51:07.561Z,3.72
2016-12-17T11:52:08.287Z,3.68
2016-12-17T11:53:08.069Z,3.65
2016-12-17T11:54:07.797Z,3.67
2016-12-17T11:55:07.258Z,3.78
2016-12-17T11:56:08.947Z,3.60
2016-12-17T11:57:07.699Z,3.61
2016-12-17T11:58:08.138Z,3.79
2016-12-17T11:59:07.885Z,3.60
2016-12-17T12:00:08.368Z,3.62
2016-12-17T12:01:13.211Z,3.68
2016-12-17T12:02:09.145Z,3.62
2016-12-17T12:03:07.910Z,3.59
2016-12-17T12:04:07.639Z,3.62
2016-12-17T12:05:07.431Z,3.68
2016-12-17T12:06:08.273Z,3.72
2016-12-17T12:07:08.010Z,3.77
2016-12-17T12:08:20.722Z,3.72
2016-12-17T12:09:08.074Z,3.76
2016-12-17T12:10:07.801Z,3.80
2016-12-17T12:11:07.727Z,3.80
2016-12-17T12:12:07.581Z,3.86
2016-12-17T12:13:08.239Z,3.84
2016-12-17T12:14:07.922Z,3.71
2016-12-17T12:15:07.721Z,3.77
2016-12-17T12:16:07.568Z,3.84
2016-12-17T12:17:08.333Z,3.98
2016-12-17T12:18:08.227Z,3.94
2016-12-17T12:19:08.155Z,4.00
2016-12-17T12:20:08.001Z,3.97
2016-12-17T12:21:07.904Z,3.85
2016-12-17T12:22:07.690Z,3.84
2016-12-17T12:23:07.569Z,4.03
2016-12-17T12:24:07.911Z,3.94
2016-12-17T12:25:07.756Z,3.98
2016-12-17T12:26:07.549Z,3.98
2016-12-17T12:27:08.182Z,4.02
2016-12-17T12:28:07.923Z,4.01
2016-12-17T12:29:07.620Z,3.98
2016-12-17T12:30:07.343Z,4.00
2016-12-17T12:31:08.307Z,4.09
2016-12-17T12:32:07.631Z,4.02
2016-12-17T12:33:07.484Z,4.09
2016-12-17T12:34:08.228Z,4.07
2016-12-17T12:35:07.949Z,4.11
2016-12-17T12:36:07.662Z,4.08
2016-12-17T12:37:08.097Z,4.26
2016-12-17T12:38:08.097Z,4.16
2016-12-17T12:39:07.895Z,4.13
2016-12-17T12:40:07.643Z,4.23
2016-12-17T12:41:07.605Z,4.22
2016-12-17T12:42:07.495Z,4.05
2016-12-17T12:43:08.190Z,3.97
2016-12-17T12:44:07.961Z,4.05
2016-12-17T12:45:07.602Z,4.14
2016-12-17T12:46:07.419Z,4.20
2016-12-17T12:47:08.262Z,4.13
2016-12-17T12:48:08.040Z,4.20
2016-12-17T12:49:07.884Z,4.12
2016-12-17T12:50:07.726Z,4.21
2016-12-17T12:51:07.528Z,4.27
2016-12-17T12:52:08.987Z,4.25
2016-12-17T12:53:07.848Z,4.20
2016-12-17T12:54:07.676Z,4.26
2016-12-17T12:55:07.428Z,4.36
2016-12-17T12:56:08.238Z,4.35
2016-12-17T12:57:07.960Z,4.29
2016-12-17T12:58:07.758Z,4.30
2016-12-17T12:59:07.608Z,4.28
2016-12-17T13:00:07.395Z,4.34
2016-12-17T13:01:08.038Z,4.35
2016-12-17T13:02:07.875Z,4.37
2016-12-17T13:03:07.702Z,4.43
2016-12-17T13:04:07.588Z,4.47
2016-12-17T13:05:07.364Z,4.38
2016-12-17T13:06:08.176Z,4.46
2016-12-17T13:07:08.240Z,4.42
2016-12-17T13:08:08.088Z,4.36
2016-12-17T13:09:07.554Z,4.37
2016-12-17T13:10:07.726Z,4.41
2016-12-17T13:11:07.677Z,4.41
2016-12-17T13:12:07.407Z,4.41
2016-12-17T13:13:08.029Z,4.53
2016-12-17T13:14:07.543Z,4.47
2016-12-17T13:15:07.666Z,4.48
2016-12-17T13:16:07.609Z,4.58
2016-12-17T13:17:08.428Z,4.52
2016-12-17T13:18:08.017Z,4.58
2016-12-17T13:19:08.069Z,4.66